sensor_id;sensor_type;location;lat;lon;timestamp;P1;durP1;ratioP1;P2;durP2;ratioP2
12832;SDS011;6483;51.310;4.462;2023-02-01T00:00:47;21.83;;;4.73;;
12832;SDS011;6483;51.310;4.462;2023-02-01T00:03:13;16.37;;;4.40;;
12832;SDS011;6483;51.310;4.462;2023-02-01T00:05:39;24.63;;;4.17;;
12832;SDS011;6483;51.310;4.462;2023-02-01T00:08:05;14.47;;;4.17;;
12832;SDS011;6483;51.310;4.462;2023-02-01T00:10:33;23.20;;;4.40;;
12832;SDS011;6483;51.310;4.462;2023-02-01T00:13:02;18.67;;;4.87;;
12832;SDS011;6483;51.310;4.462;2023-02-01T00:15:28;24.17;;;4.63;;
12832;SDS011;6483;51.310;4.462;2023-02-01T00:17:54;26.97;;;5.27;;
12832;SDS011;6483;51.310;4.462;2023-02-01T00:20:20;18.23;;;4.03;;
12832;SDS011;6483;51.310;4.462;2023-02-01T00:22:45;18.80;;;4.43;;
12832;SDS011;6483;51.310;4.462;2023-02-01T00:25:11;20.60;;;4.93;;
12832;SDS011;6483;51.310;4.462;2023-02-01T00:27:37;17.43;;;4.43;;
12832;SDS011;6483;51.310;4.462;2023-02-01T00:30:03;17.13;;;4.10;;
12832;SDS011;6483;51.310;4.462;2023-02-01T00:32:30;22.80;;;4.00;;
12832;SDS011;6483;51.310;4.462;2023-02-01T00:34:56;17.60;;;4.27;;
12832;SDS011;6483;51.310;4.462;2023-02-01T00:37:22;22.13;;;4.63;;
12832;SDS011;6483;51.310;4.462;2023-02-01T00:39:50;25.97;;;4.73;;
12832;SDS011;6483;51.310;4.462;2023-02-01T00:42:20;27.83;;;5.60;;
12832;SDS011;6483;51.310;4.462;2023-02-01T00:44:52;23.10;;;5.27;;
12832;SDS011;6483;51.310;4.462;2023-02-01T00:47:17;24.47;;;5.23;;
12832;SDS011;6483;51.310;4.462;2023-02-01T00:49:45;20.40;;;5.00;;
12832;SDS011;6483;51.310;4.462;2023-02-01T00:52:11;21.73;;;5.20;;
12832;SDS011;6483;51.310;4.462;2023-02-01T00:54:37;18.53;;;3.77;;
12832;SDS011;6483;51.310;4.462;2023-02-01T00:57:03;26.53;;;5.30;;
12832;SDS011;6483;51.310;4.462;2023-02-01T00:59:31;19.00;;;4.13;;
12832;SDS011;6483;51.310;4.462;2023-02-01T01:02:03;24.57;;;4.53;;
12832;SDS011;6483;51.310;4.462;2023-02-01T01:04:32;18.43;;;4.00;;
12832;SDS011;6483;51.310;4.462;2023-02-01T01:06:58;24.60;;;4.90;;
12832;SDS011;6483;51.310;4.462;2023-02-01T01:09:24;17.60;;;4.10;;
12832;SDS011;6483;51.310;4.462;2023-02-01T01:11:49;21.80;;;4.53;;
12832;SDS011;6483;51.310;4.462;2023-02-01T01:14:18;19.23;;;4.63;;
12832;SDS011;6483;51.310;4.462;2023-02-01T01:16:44;18.73;;;3.73;;
12832;SDS011;6483;51.310;4.462;2023-02-01T01:19:09;22.47;;;5.43;;
12832;SDS011;6483;51.310;4.462;2023-02-01T01:21:35;24.53;;;4.73;;
12832;SDS011;6483;51.310;4.462;2023-02-01T01:24:01;19.20;;;4.47;;
12832;SDS011;6483;51.310;4.462;2023-02-01T01:26:27;23.00;;;4.67;;
12832;SDS011;6483;51.310;4.462;2023-02-01T01:28:54;20.40;;;5.07;;
12832;SDS011;6483;51.310;4.462;2023-02-01T01:31:21;20.77;;;5.53;;
12832;SDS011;6483;51.310;4.462;2023-02-01T01:33:51;17.87;;;4.67;;
12832;SDS011;6483;51.310;4.462;2023-02-01T01:36:18;20.60;;;6.20;;
12832;SDS011;6483;51.310;4.462;2023-02-01T01:38:44;18.37;;;5.20;;
12832;SDS011;6483;51.310;4.462;2023-02-01T01:41:12;20.40;;;4.73;;
12832;SDS011;6483;51.310;4.462;2023-02-01T01:43:48;18.87;;;4.87;;
12832;SDS011;6483;51.310;4.462;2023-02-01T01:46:37;13.97;;;4.37;;
12832;SDS011;6483;51.310;4.462;2023-02-01T01:51:31;19.33;;;4.40;;
12832;SDS011;6483;51.310;4.462;2023-02-01T01:54:09;14.43;;;4.00;;
12832;SDS011;6483;51.310;4.462;2023-02-01T01:56:42;20.83;;;4.80;;
12832;SDS011;6483;51.310;4.462;2023-02-01T01:59:08;23.93;;;4.67;;
12832;SDS011;6483;51.310;4.462;2023-02-01T02:01:34;12.20;;;3.67;;
12832;SDS011;6483;51.310;4.462;2023-02-01T02:04:00;22.80;;;4.57;;
12832;SDS011;6483;51.310;4.462;2023-02-01T02:06:37;21.07;;;4.57;;
12832;SDS011;6483;51.310;4.462;2023-02-01T02:09:12;15.60;;;3.27;;
12832;SDS011;6483;51.310;4.462;2023-02-01T02:11:39;18.07;;;3.97;;
12832;SDS011;6483;51.310;4.462;2023-02-01T02:14:06;19.33;;;4.07;;
12832;SDS011;6483;51.310;4.462;2023-02-01T02:27:32;20.27;;;3.63;;
12832;SDS011;6483;51.310;4.462;2023-02-01T02:36:22;18.63;;;3.57;;
12832;SDS011;6483;51.310;4.462;2023-02-01T02:39:06;20.20;;;3.80;;
12832;SDS011;6483;51.310;4.462;2023-02-01T02:44:46;18.20;;;3.43;;
12832;SDS011;6483;51.310;4.462;2023-02-01T02:53:12;19.67;;;4.10;;
12832;SDS011;6483;51.310;4.462;2023-02-01T02:55:59;22.73;;;5.03;;
12832;SDS011;6483;51.310;4.462;2023-02-01T02:58:47;20.13;;;4.77;;
12832;SDS011;6483;51.310;4.462;2023-02-01T03:01:32;24.23;;;4.07;;
12832;SDS011;6483;51.310;4.462;2023-02-01T03:04:16;22.43;;;5.47;;
12832;SDS011;6483;51.310;4.462;2023-02-01T03:06:46;21.97;;;5.80;;
12832;SDS011;6483;51.310;4.462;2023-02-01T03:09:31;23.77;;;5.67;;
12832;SDS011;6483;51.310;4.462;2023-02-01T03:12:01;23.63;;;4.23;;
12832;SDS011;6483;51.310;4.462;2023-02-01T03:14:52;15.20;;;4.17;;
12832;SDS011;6483;51.310;4.462;2023-02-01T03:17:25;24.97;;;4.87;;
12832;SDS011;6483;51.310;4.462;2023-02-01T03:19:58;16.17;;;4.13;;
12832;SDS011;6483;51.310;4.462;2023-02-01T03:22:27;23.47;;;4.53;;
12832;SDS011;6483;51.310;4.462;2023-02-01T03:30:06;24.60;;;4.73;;
12832;SDS011;6483;51.310;4.462;2023-02-01T03:32:34;15.60;;;4.00;;
12832;SDS011;6483;51.310;4.462;2023-02-01T03:35:32;25.50;;;5.10;;
12832;SDS011;6483;51.310;4.462;2023-02-01T03:38:17;23.77;;;4.83;;
12832;SDS011;6483;51.310;4.462;2023-02-01T03:40:54;16.63;;;4.03;;
12832;SDS011;6483;51.310;4.462;2023-02-01T03:43:27;19.80;;;4.50;;
12832;SDS011;6483;51.310;4.462;2023-02-01T03:46:00;17.83;;;5.17;;
12832;SDS011;6483;51.310;4.462;2023-02-01T03:48:30;16.20;;;4.50;;
12832;SDS011;6483;51.310;4.462;2023-02-01T03:50:58;22.47;;;4.87;;
12832;SDS011;6483;51.310;4.462;2023-02-01T03:53:28;17.27;;;4.40;;
12832;SDS011;6483;51.310;4.462;2023-02-01T03:55:55;24.53;;;5.00;;
12832;SDS011;6483;51.310;4.462;2023-02-01T03:58:22;19.13;;;4.80;;
12832;SDS011;6483;51.310;4.462;2023-02-01T04:00:58;17.93;;;3.90;;
12832;SDS011;6483;51.310;4.462;2023-02-01T04:03:25;16.97;;;4.20;;
12832;SDS011;6483;51.310;4.462;2023-02-01T04:05:52;24.03;;;4.93;;
12832;SDS011;6483;51.310;4.462;2023-02-01T04:08:19;22.70;;;5.07;;
12832;SDS011;6483;51.310;4.462;2023-02-01T04:10:45;19.73;;;4.10;;
12832;SDS011;6483;51.310;4.462;2023-02-01T04:13:11;20.87;;;4.03;;
12832;SDS011;6483;51.310;4.462;2023-02-01T04:15:37;17.70;;;4.00;;
12832;SDS011;6483;51.310;4.462;2023-02-01T04:18:03;28.70;;;4.77;;
12832;SDS011;6483;51.310;4.462;2023-02-01T04:20:29;25.83;;;5.90;;
12832;SDS011;6483;51.310;4.462;2023-02-01T04:22:55;22.77;;;4.93;;
12832;SDS011;6483;51.310;4.462;2023-02-01T04:25:21;17.67;;;4.20;;
12832;SDS011;6483;51.310;4.462;2023-02-01T04:27:46;24.77;;;5.00;;
12832;SDS011;6483;51.310;4.462;2023-02-01T04:30:12;26.60;;;4.83;;
12832;SDS011;6483;51.310;4.462;2023-02-01T04:32:39;23.23;;;4.87;;
12832;SDS011;6483;51.310;4.462;2023-02-01T04:35:05;22.67;;;4.90;;
12832;SDS011;6483;51.310;4.462;2023-02-01T04:37:32;21.83;;;4.70;;
12832;SDS011;6483;51.310;4.462;2023-02-01T04:39:58;27.03;;;5.33;;
12832;SDS011;6483;51.310;4.462;2023-02-01T04:42:23;26.40;;;5.43;;
12832;SDS011;6483;51.310;4.462;2023-02-01T04:44:49;21.50;;;4.23;;
12832;SDS011;6483;51.310;4.462;2023-02-01T04:47:15;21.80;;;4.40;;
12832;SDS011;6483;51.310;4.462;2023-02-01T04:49:41;30.00;;;4.87;;
12832;SDS011;6483;51.310;4.462;2023-02-01T04:52:07;18.47;;;4.23;;
12832;SDS011;6483;51.310;4.462;2023-02-01T04:54:33;22.57;;;4.70;;
12832;SDS011;6483;51.310;4.462;2023-02-01T04:56:58;25.40;;;4.50;;
12832;SDS011;6483;51.310;4.462;2023-02-01T04:59:24;23.53;;;4.97;;
12832;SDS011;6483;51.310;4.462;2023-02-01T05:01:50;15.80;;;3.67;;
12832;SDS011;6483;51.310;4.462;2023-02-01T05:04:16;23.07;;;4.23;;
12832;SDS011;6483;51.310;4.462;2023-02-01T05:06:43;24.90;;;4.87;;
12832;SDS011;6483;51.310;4.462;2023-02-01T05:09:09;25.63;;;4.47;;
12832;SDS011;6483;51.310;4.462;2023-02-01T05:11:35;24.27;;;4.57;;
12832;SDS011;6483;51.310;4.462;2023-02-01T05:14:19;24.57;;;5.20;;
12832;SDS011;6483;51.310;4.462;2023-02-01T05:16:45;19.00;;;5.00;;
12832;SDS011;6483;51.310;4.462;2023-02-01T05:19:10;37.17;;;6.30;;
12832;SDS011;6483;51.310;4.462;2023-02-01T05:21:36;21.97;;;4.30;;
12832;SDS011;6483;51.310;4.462;2023-02-01T05:24:02;22.53;;;4.83;;
12832;SDS011;6483;51.310;4.462;2023-02-01T05:26:45;16.50;;;4.30;;
12832;SDS011;6483;51.310;4.462;2023-02-01T05:29:11;23.83;;;4.57;;
12832;SDS011;6483;51.310;4.462;2023-02-01T05:31:37;22.63;;;3.93;;
12832;SDS011;6483;51.310;4.462;2023-02-01T05:34:02;24.00;;;5.00;;
12832;SDS011;6483;51.310;4.462;2023-02-01T05:36:28;21.47;;;5.37;;
12832;SDS011;6483;51.310;4.462;2023-02-01T05:38:54;25.30;;;4.80;;
12832;SDS011;6483;51.310;4.462;2023-02-01T05:41:20;25.40;;;4.37;;
12832;SDS011;6483;51.310;4.462;2023-02-01T05:43:45;26.70;;;4.27;;
12832;SDS011;6483;51.310;4.462;2023-02-01T05:46:11;14.20;;;3.73;;
12832;SDS011;6483;51.310;4.462;2023-02-01T05:48:41;19.17;;;4.33;;
12832;SDS011;6483;51.310;4.462;2023-02-01T05:51:07;17.60;;;4.47;;
12832;SDS011;6483;51.310;4.462;2023-02-01T05:53:34;19.73;;;4.67;;
12832;SDS011;6483;51.310;4.462;2023-02-01T05:56:00;18.70;;;4.20;;
12832;SDS011;6483;51.310;4.462;2023-02-01T05:58:26;21.30;;;4.70;;
12832;SDS011;6483;51.310;4.462;2023-02-01T06:00:51;21.27;;;4.37;;
12832;SDS011;6483;51.310;4.462;2023-02-01T06:03:17;22.53;;;4.10;;
12832;SDS011;6483;51.310;4.462;2023-02-01T06:05:44;21.33;;;5.13;;
12832;SDS011;6483;51.310;4.462;2023-02-01T06:08:10;25.47;;;4.67;;
12832;SDS011;6483;51.310;4.462;2023-02-01T06:10:36;28.57;;;5.10;;
12832;SDS011;6483;51.310;4.462;2023-02-01T06:13:04;25.10;;;5.03;;
12832;SDS011;6483;51.310;4.462;2023-02-01T06:15:30;26.47;;;5.40;;
12832;SDS011;6483;51.310;4.462;2023-02-01T06:17:57;17.77;;;4.23;;
12832;SDS011;6483;51.310;4.462;2023-02-01T06:20:23;17.27;;;4.03;;
12832;SDS011;6483;51.310;4.462;2023-02-01T06:22:49;33.83;;;5.00;;
12832;SDS011;6483;51.310;4.462;2023-02-01T06:25:15;23.00;;;5.43;;
12832;SDS011;6483;51.310;4.462;2023-02-01T06:27:42;19.53;;;3.60;;
12832;SDS011;6483;51.310;4.462;2023-02-01T06:30:13;20.97;;;5.07;;
12832;SDS011;6483;51.310;4.462;2023-02-01T06:32:39;22.90;;;3.87;;
12832;SDS011;6483;51.310;4.462;2023-02-01T06:35:08;29.93;;;4.60;;
12832;SDS011;6483;51.310;4.462;2023-02-01T06:37:36;22.73;;;4.43;;
12832;SDS011;6483;51.310;4.462;2023-02-01T06:40:03;24.73;;;4.37;;
12832;SDS011;6483;51.310;4.462;2023-02-01T06:42:29;21.77;;;4.40;;
12832;SDS011;6483;51.310;4.462;2023-02-01T06:44:55;23.90;;;4.17;;
12832;SDS011;6483;51.310;4.462;2023-02-01T06:47:23;25.67;;;4.00;;
12832;SDS011;6483;51.310;4.462;2023-02-01T06:49:49;21.03;;;4.53;;
12832;SDS011;6483;51.310;4.462;2023-02-01T06:52:15;23.13;;;4.20;;
12832;SDS011;6483;51.310;4.462;2023-02-01T06:54:40;20.53;;;4.17;;
12832;SDS011;6483;51.310;4.462;2023-02-01T06:57:06;13.40;;;3.57;;
12832;SDS011;6483;51.310;4.462;2023-02-01T06:59:32;22.83;;;4.30;;
12832;SDS011;6483;51.310;4.462;2023-02-01T07:01:58;20.87;;;3.67;;
12832;SDS011;6483;51.310;4.462;2023-02-01T07:04:23;18.73;;;3.87;;
12832;SDS011;6483;51.310;4.462;2023-02-01T07:06:49;17.73;;;4.40;;
12832;SDS011;6483;51.310;4.462;2023-02-01T07:09:15;15.43;;;3.60;;
12832;SDS011;6483;51.310;4.462;2023-02-01T07:11:41;18.07;;;4.17;;
12832;SDS011;6483;51.310;4.462;2023-02-01T07:14:09;25.57;;;5.03;;
12832;SDS011;6483;51.310;4.462;2023-02-01T07:16:35;23.03;;;5.33;;
12832;SDS011;6483;51.310;4.462;2023-02-01T07:19:02;23.93;;;4.80;;
12832;SDS011;6483;51.310;4.462;2023-02-01T07:21:28;17.10;;;4.30;;
12832;SDS011;6483;51.310;4.462;2023-02-01T07:23:54;30.47;;;4.33;;
12832;SDS011;6483;51.310;4.462;2023-02-01T07:26:20;19.10;;;4.90;;
12832;SDS011;6483;51.310;4.462;2023-02-01T07:28:49;19.83;;;4.83;;
12832;SDS011;6483;51.310;4.462;2023-02-01T07:31:20;18.57;;;4.27;;
12832;SDS011;6483;51.310;4.462;2023-02-01T07:33:47;17.43;;;4.33;;
12832;SDS011;6483;51.310;4.462;2023-02-01T07:36:18;17.43;;;3.50;;
12832;SDS011;6483;51.310;4.462;2023-02-01T07:38:44;19.40;;;3.87;;
12832;SDS011;6483;51.310;4.462;2023-02-01T07:41:12;20.70;;;4.20;;
12832;SDS011;6483;51.310;4.462;2023-02-01T07:43:38;23.10;;;4.03;;
12832;SDS011;6483;51.310;4.462;2023-02-01T07:46:04;24.53;;;4.17;;
12832;SDS011;6483;51.310;4.462;2023-02-01T07:48:37;19.30;;;3.70;;
12832;SDS011;6483;51.310;4.462;2023-02-01T07:51:04;21.17;;;4.23;;
12832;SDS011;6483;51.310;4.462;2023-02-01T07:53:31;20.57;;;4.43;;
12832;SDS011;6483;51.310;4.462;2023-02-01T07:56:00;21.70;;;4.73;;
12832;SDS011;6483;51.310;4.462;2023-02-01T07:58:27;17.07;;;3.87;;
12832;SDS011;6483;51.310;4.462;2023-02-01T08:00:54;25.23;;;5.10;;
12832;SDS011;6483;51.310;4.462;2023-02-01T08:03:38;16.17;;;4.23;;
12832;SDS011;6483;51.310;4.462;2023-02-01T08:06:05;25.37;;;4.90;;
12832;SDS011;6483;51.310;4.462;2023-02-01T08:08:31;19.83;;;4.17;;
12832;SDS011;6483;51.310;4.462;2023-02-01T08:11:00;17.40;;;4.17;;
12832;SDS011;6483;51.310;4.462;2023-02-01T08:13:28;24.63;;;5.20;;
12832;SDS011;6483;51.310;4.462;2023-02-01T08:15:58;20.40;;;3.93;;
12832;SDS011;6483;51.310;4.462;2023-02-01T08:18:30;13.97;;;3.70;;
12832;SDS011;6483;51.310;4.462;2023-02-01T08:20:56;24.30;;;4.60;;
12832;SDS011;6483;51.310;4.462;2023-02-01T08:23:25;20.93;;;4.57;;
12832;SDS011;6483;51.310;4.462;2023-02-01T08:25:53;17.53;;;4.20;;
12832;SDS011;6483;51.310;4.462;2023-02-01T08:28:19;15.10;;;4.07;;
12832;SDS011;6483;51.310;4.462;2023-02-01T08:30:45;25.07;;;4.30;;
12832;SDS011;6483;51.310;4.462;2023-02-01T08:33:11;17.77;;;4.07;;
12832;SDS011;6483;51.310;4.462;2023-02-01T08:35:36;18.10;;;3.70;;
12832;SDS011;6483;51.310;4.462;2023-02-01T08:38:02;23.50;;;4.30;;
12832;SDS011;6483;51.310;4.462;2023-02-01T08:40:28;24.47;;;4.20;;
12832;SDS011;6483;51.310;4.462;2023-02-01T08:42:54;13.73;;;3.13;;
12832;SDS011;6483;51.310;4.462;2023-02-01T08:45:21;21.13;;;3.80;;
12832;SDS011;6483;51.310;4.462;2023-02-01T08:47:52;16.33;;;3.77;;
12832;SDS011;6483;51.310;4.462;2023-02-01T08:50:18;11.47;;;2.80;;
12832;SDS011;6483;51.310;4.462;2023-02-01T08:52:45;27.77;;;3.93;;
12832;SDS011;6483;51.310;4.462;2023-02-01T08:55:12;18.23;;;3.87;;
12832;SDS011;6483;51.310;4.462;2023-02-01T08:57:38;12.97;;;3.77;;
12832;SDS011;6483;51.310;4.462;2023-02-01T09:00:05;22.30;;;4.90;;
12832;SDS011;6483;51.310;4.462;2023-02-01T09:02:33;19.37;;;3.93;;
12832;SDS011;6483;51.310;4.462;2023-02-01T09:04:59;16.83;;;3.67;;
12832;SDS011;6483;51.310;4.462;2023-02-01T09:07:25;23.97;;;4.53;;
12832;SDS011;6483;51.310;4.462;2023-02-01T09:09:50;19.70;;;3.93;;
12832;SDS011;6483;51.310;4.462;2023-02-01T09:12:17;21.40;;;4.17;;
12832;SDS011;6483;51.310;4.462;2023-02-01T09:14:43;19.60;;;3.43;;
12832;SDS011;6483;51.310;4.462;2023-02-01T09:17:08;22.50;;;4.40;;
12832;SDS011;6483;51.310;4.462;2023-02-01T09:19:34;16.60;;;3.43;;
12832;SDS011;6483;51.310;4.462;2023-02-01T09:22:00;19.87;;;4.30;;
12832;SDS011;6483;51.310;4.462;2023-02-01T09:24:25;20.17;;;4.03;;
12832;SDS011;6483;51.310;4.462;2023-02-01T09:26:52;17.73;;;3.40;;
12832;SDS011;6483;51.310;4.462;2023-02-01T09:29:18;21.23;;;4.40;;
12832;SDS011;6483;51.310;4.462;2023-02-01T09:31:43;24.30;;;4.37;;
12832;SDS011;6483;51.310;4.462;2023-02-01T09:34:09;16.40;;;3.60;;
12832;SDS011;6483;51.310;4.462;2023-02-01T09:36:35;16.60;;;4.63;;
12832;SDS011;6483;51.310;4.462;2023-02-01T09:39:01;20.43;;;4.17;;
12832;SDS011;6483;51.310;4.462;2023-02-01T09:46:36;19.23;;;3.90;;
12832;SDS011;6483;51.310;4.462;2023-02-01T09:49:45;15.20;;;3.50;;
12832;SDS011;6483;51.310;4.462;2023-02-01T09:51:53;16.80;;;3.27;;
12832;SDS011;6483;51.310;4.462;2023-02-01T09:54:28;15.50;;;3.40;;
12832;SDS011;6483;51.310;4.462;2023-02-01T09:57:08;17.37;;;3.83;;
12832;SDS011;6483;51.310;4.462;2023-02-01T10:02:43;15.97;;;3.70;;
12832;SDS011;6483;51.310;4.462;2023-02-01T10:05:16;11.63;;;3.23;;
12832;SDS011;6483;51.310;4.462;2023-02-01T10:10:36;12.37;;;3.03;;
12832;SDS011;6483;51.310;4.462;2023-02-01T10:16:10;12.83;;;2.93;;
12832;SDS011;6483;51.310;4.462;2023-02-01T10:21:36;12.10;;;2.80;;
12832;SDS011;6483;51.310;4.462;2023-02-01T10:27:40;14.27;;;2.97;;
12832;SDS011;6483;51.310;4.462;2023-02-01T10:30:23;10.85;;;2.67;;
12832;SDS011;6483;51.310;4.462;2023-02-01T10:32:57;8.77;;;2.67;;
12832;SDS011;6483;51.310;4.462;2023-02-01T10:35:49;14.73;;;3.20;;
12832;SDS011;6483;51.310;4.462;2023-02-01T10:38:26;13.93;;;2.63;;
12832;SDS011;6483;51.310;4.462;2023-02-01T10:40:55;15.80;;;3.53;;
12832;SDS011;6483;51.310;4.462;2023-02-01T10:43:42;14.53;;;3.10;;
12832;SDS011;6483;51.310;4.462;2023-02-01T10:46:09;19.63;;;3.67;;
12832;SDS011;6483;51.310;4.462;2023-02-01T10:48:56;15.67;;;3.07;;
12832;SDS011;6483;51.310;4.462;2023-02-01T10:51:29;26.48;;;3.33;;
12832;SDS011;6483;51.310;4.462;2023-02-01T10:54:11;20.23;;;3.30;;
12832;SDS011;6483;51.310;4.462;2023-02-01T10:56:45;16.10;;;3.10;;
12832;SDS011;6483;51.310;4.462;2023-02-01T11:00:21;17.05;;;2.40;;
12832;SDS011;6483;51.310;4.462;2023-02-01T11:06:24;22.33;;;2.80;;
12832;SDS011;6483;51.310;4.462;2023-02-01T11:08:57;14.95;;;2.40;;
12832;SDS011;6483;51.310;4.462;2023-02-01T11:11:25;11.23;;;3.15;;
12832;SDS011;6483;51.310;4.462;2023-02-01T11:13:59;13.60;;;2.83;;
12832;SDS011;6483;51.310;4.462;2023-02-01T11:16:37;14.55;;;3.15;;
12832;SDS011;6483;51.310;4.462;2023-02-01T11:19:05;9.75;;;2.28;;
12832;SDS011;6483;51.310;4.462;2023-02-01T11:21:32;10.35;;;2.28;;
12832;SDS011;6483;51.310;4.462;2023-02-01T11:24:00;14.13;;;2.60;;
12832;SDS011;6483;51.310;4.462;2023-02-01T11:26:30;11.53;;;2.70;;
12832;SDS011;6483;51.310;4.462;2023-02-01T11:29:04;11.55;;;2.53;;
12832;SDS011;6483;51.310;4.462;2023-02-01T11:31:45;9.83;;;2.60;;
12832;SDS011;6483;51.310;4.462;2023-02-01T11:34:16;11.02;;;2.78;;
12832;SDS011;6483;51.310;4.462;2023-02-01T11:36:45;11.18;;;2.70;;
12832;SDS011;6483;51.310;4.462;2023-02-01T11:39:32;19.42;;;3.42;;
12832;SDS011;6483;51.310;4.462;2023-02-01T11:42:17;13.30;;;3.08;;
12832;SDS011;6483;51.310;4.462;2023-02-01T11:44:44;13.45;;;2.80;;
12832;SDS011;6483;51.310;4.462;2023-02-01T11:47:22;7.70;;;2.00;;
12832;SDS011;6483;51.310;4.462;2023-02-01T11:56:33;17.35;;;3.22;;
12832;SDS011;6483;51.310;4.462;2023-02-01T11:59:46;8.47;;;2.17;;
12832;SDS011;6483;51.310;4.462;2023-02-01T12:08:22;13.10;;;3.33;;
12832;SDS011;6483;51.310;4.462;2023-02-01T12:44:25;15.18;;;3.47;;
12832;SDS011;6483;51.310;4.462;2023-02-01T12:47:20;12.65;;;2.85;;
12832;SDS011;6483;51.310;4.462;2023-02-01T12:52:50;15.43;;;3.78;;
12832;SDS011;6483;51.310;4.462;2023-02-01T12:58:24;16.53;;;4.40;;
12832;SDS011;6483;51.310;4.462;2023-02-01T13:01:07;12.82;;;3.15;;
12832;SDS011;6483;51.310;4.462;2023-02-01T13:03:59;18.35;;;4.18;;
12832;SDS011;6483;51.310;4.462;2023-02-01T13:06:48;12.23;;;3.27;;
12832;SDS011;6483;51.310;4.462;2023-02-01T13:09:22;19.08;;;3.38;;
12832;SDS011;6483;51.310;4.462;2023-02-01T13:11:53;19.33;;;3.63;;
12832;SDS011;6483;51.310;4.462;2023-02-01T13:17:25;16.30;;;3.25;;
12832;SDS011;6483;51.310;4.462;2023-02-01T13:20:10;15.97;;;3.37;;
12832;SDS011;6483;51.310;4.462;2023-02-01T13:25:35;15.50;;;2.80;;
12832;SDS011;6483;51.310;4.462;2023-02-01T13:28:25;17.07;;;3.33;;
12832;SDS011;6483;51.310;4.462;2023-02-01T13:39:43;17.27;;;3.43;;
12832;SDS011;6483;51.310;4.462;2023-02-01T13:42:30;16.20;;;2.97;;
12832;SDS011;6483;51.310;4.462;2023-02-01T13:45:04;14.33;;;2.97;;
12832;SDS011;6483;51.310;4.462;2023-02-01T13:47:40;10.90;;;2.97;;
12832;SDS011;6483;51.310;4.462;2023-02-01T13:55:54;20.27;;;4.22;;
12832;SDS011;6483;51.310;4.462;2023-02-01T13:58:36;16.33;;;3.63;;
12832;SDS011;6483;51.310;4.462;2023-02-01T14:03:48;15.95;;;3.38;;
12832;SDS011;6483;51.310;4.462;2023-02-01T14:11:46;12.67;;;3.00;;
12832;SDS011;6483;51.310;4.462;2023-02-01T14:19:37;15.02;;;3.67;;
12832;SDS011;6483;51.310;4.462;2023-02-01T14:24:50;18.00;;;3.35;;
12832;SDS011;6483;51.310;4.462;2023-02-01T14:27:38;18.47;;;3.80;;
12832;SDS011;6483;51.310;4.462;2023-02-01T14:30:07;17.85;;;3.45;;
12832;SDS011;6483;51.310;4.462;2023-02-01T14:32:44;12.60;;;3.33;;
12832;SDS011;6483;51.310;4.462;2023-02-01T14:35:23;15.10;;;3.22;;
12832;SDS011;6483;51.310;4.462;2023-02-01T14:37:51;12.85;;;3.10;;
12832;SDS011;6483;51.310;4.462;2023-02-01T14:40:27;14.97;;;3.10;;
12832;SDS011;6483;51.310;4.462;2023-02-01T14:42:56;11.70;;;2.93;;
12832;SDS011;6483;51.310;4.462;2023-02-01T14:47:55;19.15;;;3.75;;
12832;SDS011;6483;51.310;4.462;2023-02-01T14:50:43;16.07;;;3.73;;
12832;SDS011;6483;51.310;4.462;2023-02-01T15:01:00;13.00;;;3.10;;
12832;SDS011;6483;51.310;4.462;2023-02-01T15:04:04;21.40;;;3.67;;
12832;SDS011;6483;51.310;4.462;2023-02-01T15:09:54;18.50;;;3.53;;
12832;SDS011;6483;51.310;4.462;2023-02-01T15:14:33;13.50;;;3.30;;
12832;SDS011;6483;51.310;4.462;2023-02-01T15:17:02;19.07;;;3.50;;
12832;SDS011;6483;51.310;4.462;2023-02-01T15:19:31;16.10;;;3.70;;
12832;SDS011;6483;51.310;4.462;2023-02-01T15:22:00;15.73;;;3.57;;
12832;SDS011;6483;51.310;4.462;2023-02-01T15:24:29;21.07;;;3.83;;
12832;SDS011;6483;51.310;4.462;2023-02-01T15:26:58;15.60;;;3.87;;
12832;SDS011;6483;51.310;4.462;2023-02-01T15:29:30;20.00;;;3.60;;
12832;SDS011;6483;51.310;4.462;2023-02-01T15:31:57;22.67;;;3.90;;
12832;SDS011;6483;51.310;4.462;2023-02-01T15:34:23;16.30;;;3.43;;
12832;SDS011;6483;51.310;4.462;2023-02-01T15:37:16;14.53;;;3.43;;
12832;SDS011;6483;51.310;4.462;2023-02-01T15:42:32;19.37;;;4.10;;
12832;SDS011;6483;51.310;4.462;2023-02-01T15:44:59;19.40;;;3.73;;
12832;SDS011;6483;51.310;4.462;2023-02-01T15:47:26;18.70;;;3.83;;
12832;SDS011;6483;51.310;4.462;2023-02-01T15:49:56;13.63;;;3.10;;
12832;SDS011;6483;51.310;4.462;2023-02-01T15:58:07;17.33;;;3.90;;
12832;SDS011;6483;51.310;4.462;2023-02-01T16:00:43;20.43;;;4.43;;
12832;SDS011;6483;51.310;4.462;2023-02-01T16:06:10;17.73;;;4.07;;
12832;SDS011;6483;51.310;4.462;2023-02-01T16:08:55;21.10;;;4.23;;
12832;SDS011;6483;51.310;4.462;2023-02-01T16:11:32;20.00;;;5.30;;
12832;SDS011;6483;51.310;4.462;2023-02-01T16:14:05;23.57;;;4.13;;
12832;SDS011;6483;51.310;4.462;2023-02-01T16:16:31;19.27;;;3.80;;
12832;SDS011;6483;51.310;4.462;2023-02-01T16:18:57;22.13;;;5.13;;
12832;SDS011;6483;51.310;4.462;2023-02-01T16:21:23;18.80;;;4.27;;
12832;SDS011;6483;51.310;4.462;2023-02-01T16:23:52;19.07;;;4.30;;
12832;SDS011;6483;51.310;4.462;2023-02-01T16:26:21;15.60;;;4.33;;
12832;SDS011;6483;51.310;4.462;2023-02-01T16:28:50;20.50;;;5.03;;
12832;SDS011;6483;51.310;4.462;2023-02-01T16:31:17;19.87;;;4.90;;
12832;SDS011;6483;51.310;4.462;2023-02-01T16:33:49;17.83;;;6.17;;
12832;SDS011;6483;51.310;4.462;2023-02-01T16:36:16;24.97;;;7.47;;
12832;SDS011;6483;51.310;4.462;2023-02-01T16:38:46;16.77;;;5.73;;
12832;SDS011;6483;51.310;4.462;2023-02-01T16:41:14;18.47;;;4.03;;
12832;SDS011;6483;51.310;4.462;2023-02-01T16:43:42;25.80;;;4.87;;
12832;SDS011;6483;51.310;4.462;2023-02-01T16:46:15;17.93;;;4.40;;
12832;SDS011;6483;51.310;4.462;2023-02-01T16:48:45;16.90;;;4.33;;
12832;SDS011;6483;51.310;4.462;2023-02-01T16:51:16;14.90;;;5.13;;
12832;SDS011;6483;51.310;4.462;2023-02-01T16:53:42;25.37;;;4.97;;
12832;SDS011;6483;51.310;4.462;2023-02-01T16:56:12;26.90;;;4.97;;
12832;SDS011;6483;51.310;4.462;2023-02-01T16:58:46;16.80;;;4.40;;
12832;SDS011;6483;51.310;4.462;2023-02-01T17:01:12;17.50;;;4.73;;
12832;SDS011;6483;51.310;4.462;2023-02-01T17:03:40;19.42;;;4.18;;
12832;SDS011;6483;51.310;4.462;2023-02-01T17:06:09;20.80;;;4.77;;
12832;SDS011;6483;51.310;4.462;2023-02-01T17:08:38;20.40;;;4.90;;
12832;SDS011;6483;51.310;4.462;2023-02-01T17:11:15;19.60;;;4.13;;
12832;SDS011;6483;51.310;4.462;2023-02-01T17:13:41;18.83;;;3.50;;
12832;SDS011;6483;51.310;4.462;2023-02-01T17:18:54;22.90;;;4.43;;
12832;SDS011;6483;51.310;4.462;2023-02-01T17:21:27;18.73;;;3.77;;
12832;SDS011;6483;51.310;4.462;2023-02-01T17:23:59;15.27;;;4.13;;
12832;SDS011;6483;51.310;4.462;2023-02-01T17:26:26;20.70;;;4.13;;
12832;SDS011;6483;51.310;4.462;2023-02-01T17:28:52;18.97;;;3.47;;
12832;SDS011;6483;51.310;4.462;2023-02-01T17:31:18;13.03;;;3.50;;
12832;SDS011;6483;51.310;4.462;2023-02-01T17:33:43;20.48;;;4.07;;
12832;SDS011;6483;51.310;4.462;2023-02-01T17:36:11;17.73;;;3.87;;
12832;SDS011;6483;51.310;4.462;2023-02-01T17:38:38;18.80;;;5.03;;
12832;SDS011;6483;51.310;4.462;2023-02-01T17:41:04;21.37;;;3.60;;
12832;SDS011;6483;51.310;4.462;2023-02-01T17:43:30;25.20;;;4.03;;
12832;SDS011;6483;51.310;4.462;2023-02-01T17:48:43;19.57;;;4.90;;
12832;SDS011;6483;51.310;4.462;2023-02-01T17:51:16;15.27;;;3.63;;
12832;SDS011;6483;51.310;4.462;2023-02-01T17:53:47;16.43;;;3.67;;
12832;SDS011;6483;51.310;4.462;2023-02-01T17:56:18;15.23;;;3.77;;
12832;SDS011;6483;51.310;4.462;2023-02-01T17:58:45;13.60;;;3.95;;
12832;SDS011;6483;51.310;4.462;2023-02-01T18:01:19;17.43;;;5.10;;
12832;SDS011;6483;51.310;4.462;2023-02-01T18:03:47;12.90;;;3.63;;
12832;SDS011;6483;51.310;4.462;2023-02-01T18:06:15;16.07;;;3.60;;